sensor_id;sensor_type;location;lat;lon;timestamp;temperature;humidity
4828;DHT22;2428;48.732;9.148;2022-07-25T00:01:09;22.40;99.90
4828;DHT22;2428;48.732;9.148;2022-07-25T00:03:35;22.40;99.90
4828;DHT22;2428;48.732;9.148;2022-07-25T00:06:00;22.30;99.90
4828;DHT22;2428;48.732;9.148;2022-07-25T00:08:26;22.40;99.90
4828;DHT22;2428;48.732;9.148;2022-07-25T00:10:52;22.40;99.90
4828;DHT22;2428;48.732;9.148;2022-07-25T00:13:17;22.30;99.90
4828;DHT22;2428;48.732;9.148;2022-07-25T00:15:43;22.30;99.90
4828;DHT22;2428;48.732;9.148;2022-07-25T00:18:08;22.30;99.90
4828;DHT22;2428;48.732;9.148;2022-07-25T00:20:34;22.20;99.90
4828;DHT22;2428;48.732;9.148;2022-07-25T00:23:00;22.10;99.90
4828;DHT22;2428;48.732;9.148;2022-07-25T00:25:25;22.10;99.90
4828;DHT22;2428;48.732;9.148;2022-07-25T00:27:51;22.00;99.90
4828;DHT22;2428;48.732;9.148;2022-07-25T00:30:16;22.00;99.90
4828;DHT22;2428;48.732;9.148;2022-07-25T00:32:42;22.00;99.90
4828;DHT22;2428;48.732;9.148;2022-07-25T00:35:08;22.00;99.90
4828;DHT22;2428;48.732;9.148;2022-07-25T00:37:33;22.00;99.90
4828;DHT22;2428;48.732;9.148;2022-07-25T00:39:59;22.00;99.90
4828;DHT22;2428;48.732;9.148;2022-07-25T00:42:24;22.00;99.90
4828;DHT22;2428;48.732;9.148;2022-07-25T00:44:50;21.90;99.90
4828;DHT22;2428;48.732;9.148;2022-07-25T00:47:17;22.00;99.90
4828;DHT22;2428;48.732;9.148;2022-07-25T00:49:42;22.00;99.90
4828;DHT22;2428;48.732;9.148;2022-07-25T00:52:08;21.90;99.90
4828;DHT22;2428;48.732;9.148;2022-07-25T00:54:34;21.90;99.90
4828;DHT22;2428;48.732;9.148;2022-07-25T00:56:59;21.90;99.90
4828;DHT22;2428;48.732;9.148;2022-07-25T00:59:25;21.80;99.90
4828;DHT22;2428;48.732;9.148;2022-07-25T01:01:51;21.80;99.90
4828;DHT22;2428;48.732;9.148;2022-07-25T01:04:17;21.80;99.90
4828;DHT22;2428;48.732;9.148;2022-07-25T01:06:43;21.80;99.90
4828;DHT22;2428;48.732;9.148;2022-07-25T01:09:09;21.80;99.90
4828;DHT22;2428;48.732;9.148;2022-07-25T01:11:35;21.80;99.90
4828;DHT22;2428;48.732;9.148;2022-07-25T01:14:00;21.80;99.90
4828;DHT22;2428;48.732;9.148;2022-07-25T01:16:26;21.70;99.90
4828;DHT22;2428;48.732;9.148;2022-07-25T01:18:51;21.80;99.90
4828;DHT22;2428;48.732;9.148;2022-07-25T01:21:17;21.70;99.90
4828;DHT22;2428;48.732;9.148;2022-07-25T01:23:42;21.70;99.90
4828;DHT22;2428;48.732;9.148;2022-07-25T01:26:08;21.70;99.90
4828;DHT22;2428;48.732;9.148;2022-07-25T01:28:34;21.70;99.90
4828;DHT22;2428;48.732;9.148;2022-07-25T01:30:59;21.70;99.90
4828;DHT22;2428;48.732;9.148;2022-07-25T01:33:25;21.70;99.90
4828;DHT22;2428;48.732;9.148;2022-07-25T01:35:51;21.60;99.90
4828;DHT22;2428;48.732;9.148;2022-07-25T01:38:17;21.60;99.90
4828;DHT22;2428;48.732;9.148;2022-07-25T01:40:43;21.60;99.90
4828;DHT22;2428;48.732;9.148;2022-07-25T01:43:10;21.60;99.90
4828;DHT22;2428;48.732;9.148;2022-07-25T01:45:35;21.50;99.90
4828;DHT22;2428;48.732;9.148;2022-07-25T01:48:01;21.50;99.90
4828;DHT22;2428;48.732;9.148;2022-07-25T01:50:26;21.40;99.90
4828;DHT22;2428;48.732;9.148;2022-07-25T01:52:52;21.40;99.90
4828;DHT22;2428;48.732;9.148;2022-07-25T01:55:18;21.30;99.90
4828;DHT22;2428;48.732;9.148;2022-07-25T01:57:44;21.30;99.90
4828;DHT22;2428;48.732;9.148;2022-07-25T02:00:11;21.30;99.90
4828;DHT22;2428;48.732;9.148;2022-07-25T02:02:42;21.30;99.90
4828;DHT22;2428;48.732;9.148;2022-07-25T02:05:09;21.30;99.90
4828;DHT22;2428;48.732;9.148;2022-07-25T02:07:35;21.30;99.90
4828;DHT22;2428;48.732;9.148;2022-07-25T02:10:02;21.20;99.90
4828;DHT22;2428;48.732;9.148;2022-07-25T02:12:28;21.20;99.90
4828;DHT22;2428;48.732;9.148;2022-07-25T02:14:53;21.20;99.90
4828;DHT22;2428;48.732;9.148;2022-07-25T02:17:19;21.10;99.90
4828;DHT22;2428;48.732;9.148;2022-07-25T02:19:44;21.20;99.90
4828;DHT22;2428;48.732;9.148;2022-07-25T02:22:10;21.20;99.90
4828;DHT22;2428;48.732;9.148;2022-07-25T02:24:36;21.20;99.90
4828;DHT22;2428;48.732;9.148;2022-07-25T02:27:02;21.20;99.90
4828;DHT22;2428;48.732;9.148;2022-07-25T02:29:28;21.20;99.90
4828;DHT22;2428;48.732;9.148;2022-07-25T02:31:53;21.20;99.90
4828;DHT22;2428;48.732;9.148;2022-07-25T02:34:19;21.20;99.90
4828;DHT22;2428;48.732;9.148;2022-07-25T02:36:44;21.10;99.90
4828;DHT22;2428;48.732;9.148;2022-07-25T02:39:10;21.10;99.90
4828;DHT22;2428;48.732;9.148;2022-07-25T02:41:36;21.00;99.90
4828;DHT22;2428;48.732;9.148;2022-07-25T02:44:02;21.00;99.90
4828;DHT22;2428;48.732;9.148;2022-07-25T02:46:28;20.90;99.90
4828;DHT22;2428;48.732;9.148;2022-07-25T02:48:54;20.90;99.90
4828;DHT22;2428;48.732;9.148;2022-07-25T02:51:19;21.00;99.90
4828;DHT22;2428;48.732;9.148;2022-07-25T02:53:45;20.90;99.90
4828;DHT22;2428;48.732;9.148;2022-07-25T02:56:10;21.00;99.90
4828;DHT22;2428;48.732;9.148;2022-07-25T02:58:36;21.00;99.90
4828;DHT22;2428;48.732;9.148;2022-07-25T03:01:02;21.10;99.90
4828;DHT22;2428;48.732;9.148;2022-07-25T03:03:27;21.10;99.90
4828;DHT22;2428;48.732;9.148;2022-07-25T03:05:53;21.10;99.90
4828;DHT22;2428;48.732;9.148;2022-07-25T03:08:19;21.00;99.90
4828;DHT22;2428;48.732;9.148;2022-07-25T03:10:44;21.00;99.90
4828;DHT22;2428;48.732;9.148;2022-07-25T03:13:10;21.00;99.90
4828;DHT22;2428;48.732;9.148;2022-07-25T03:15:35;20.90;99.90
4828;DHT22;2428;48.732;9.148;2022-07-25T03:18:01;20.90;99.90
4828;DHT22;2428;48.732;9.148;2022-07-25T03:20:26;20.80;99.90
4828;DHT22;2428;48.732;9.148;2022-07-25T03:22:52;20.80;99.90
4828;DHT22;2428;48.732;9.148;2022-07-25T03:25:18;20.80;99.90
4828;DHT22;2428;48.732;9.148;2022-07-25T03:27:43;20.70;99.90
4828;DHT22;2428;48.732;9.148;2022-07-25T03:30:09;20.70;99.90
4828;DHT22;2428;48.732;9.148;2022-07-25T03:32:36;20.70;99.90
4828;DHT22;2428;48.732;9.148;2022-07-25T03:35:02;20.70;99.90
4828;DHT22;2428;48.732;9.148;2022-07-25T03:37:28;20.70;99.90
4828;DHT22;2428;48.732;9.148;2022-07-25T03:39:53;20.70;99.90
4828;DHT22;2428;48.732;9.148;2022-07-25T03:42:19;20.80;99.90
4828;DHT22;2428;48.732;9.148;2022-07-25T03:44:44;20.80;99.90
4828;DHT22;2428;48.732;9.148;2022-07-25T03:47:10;20.80;99.90
4828;DHT22;2428;48.732;9.148;2022-07-25T03:49:36;20.80;99.90
4828;DHT22;2428;48.732;9.148;2022-07-25T03:52:01;20.80;99.90
4828;DHT22;2428;48.732;9.148;2022-07-25T03:54:27;20.80;99.90
4828;DHT22;2428;48.732;9.148;2022-07-25T03:56:52;20.80;99.90
4828;DHT22;2428;48.732;9.148;2022-07-25T03:59:19;20.80;99.90
4828;DHT22;2428;48.732;9.148;2022-07-25T04:01:47;20.70;99.90
4828;DHT22;2428;48.732;9.148;2022-07-25T04:04:13;20.70;99.90
4828;DHT22;2428;48.732;9.148;2022-07-25T04:06:40;20.70;99.90
4828;DHT22;2428;48.732;9.148;2022-07-25T04:09:07;20.70;99.90
4828;DHT22;2428;48.732;9.148;2022-07-25T04:11:33;20.70;99.90
4828;DHT22;2428;48.732;9.148;2022-07-25T04:14:01;20.80;99.90
4828;DHT22;2428;48.732;9.148;2022-07-25T04:16:27;20.70;99.90
4828;DHT22;2428;48.732;9.148;2022-07-25T04:18:53;20.70;99.90
4828;DHT22;2428;48.732;9.148;2022-07-25T04:21:19;20.70;99.90
4828;DHT22;2428;48.732;9.148;2022-07-25T04:23:44;20.70;99.90
4828;DHT22;2428;48.732;9.148;2022-07-25T04:26:10;20.70;99.90
4828;DHT22;2428;48.732;9.148;2022-07-25T04:28:35;20.60;99.90
4828;DHT22;2428;48.732;9.148;2022-07-25T04:31:01;20.60;99.90
4828;DHT22;2428;48.732;9.148;2022-07-25T04:33:26;20.60;99.90
4828;DHT22;2428;48.732;9.148;2022-07-25T04:35:52;20.60;99.90
4828;DHT22;2428;48.732;9.148;2022-07-25T04:38:18;20.60;99.90
4828;DHT22;2428;48.732;9.148;2022-07-25T04:40:43;20.60;99.90
4828;DHT22;2428;48.732;9.148;2022-07-25T04:43:09;20.60;99.90
4828;DHT22;2428;48.732;9.148;2022-07-25T04:45:35;20.60;99.90
4828;DHT22;2428;48.732;9.148;2022-07-25T04:48:01;20.70;99.90
4828;DHT22;2428;48.732;9.148;2022-07-25T04:50:27;20.80;99.90
4828;DHT22;2428;48.732;9.148;2022-07-25T04:52:53;20.80;99.90
4828;DHT22;2428;48.732;9.148;2022-07-25T04:55:19;20.80;99.90
4828;DHT22;2428;48.732;9.148;2022-07-25T04:57:45;20.80;99.90
4828;DHT22;2428;48.732;9.148;2022-07-25T05:00:12;20.80;99.90
4828;DHT22;2428;48.732;9.148;2022-07-25T05:02:39;20.80;99.90
4828;DHT22;2428;48.732;9.148;2022-07-25T05:05:05;20.90;99.90
4828;DHT22;2428;48.732;9.148;2022-07-25T05:07:31;20.90;99.90
4828;DHT22;2428;48.732;9.148;2022-07-25T05:09:57;21.00;99.90
4828;DHT22;2428;48.732;9.148;2022-07-25T05:12:29;21.00;99.90
4828;DHT22;2428;48.732;9.148;2022-07-25T05:14:55;21.10;99.90
4828;DHT22;2428;48.732;9.148;2022-07-25T05:17:21;21.20;99.90
4828;DHT22;2428;48.732;9.148;2022-07-25T05:19:46;21.20;99.90
4828;DHT22;2428;48.732;9.148;2022-07-25T05:22:12;21.20;99.90
4828;DHT22;2428;48.732;9.148;2022-07-25T05:24:40;21.30;99.90
4828;DHT22;2428;48.732;9.148;2022-07-25T05:27:06;21.30;99.90
4828;DHT22;2428;48.732;9.148;2022-07-25T05:29:35;21.40;99.90
4828;DHT22;2428;48.732;9.148;2022-07-25T05:32:00;21.50;99.90
4828;DHT22;2428;48.732;9.148;2022-07-25T05:34:26;21.50;99.90
4828;DHT22;2428;48.732;9.148;2022-07-25T05:36:51;21.50;99.90
4828;DHT22;2428;48.732;9.148;2022-07-25T05:39:17;21.60;99.90
4828;DHT22;2428;48.732;9.148;2022-07-25T05:41:43;21.70;99.90
4828;DHT22;2428;48.732;9.148;2022-07-25T05:44:11;21.70;99.90
4828;DHT22;2428;48.732;9.148;2022-07-25T05:46:37;21.80;99.90
4828;DHT22;2428;48.732;9.148;2022-07-25T05:49:02;21.80;99.90
4828;DHT22;2428;48.732;9.148;2022-07-25T05:51:28;21.90;99.90
4828;DHT22;2428;48.732;9.148;2022-07-25T05:53:53;22.00;99.90
4828;DHT22;2428;48.732;9.148;2022-07-25T05:56:19;22.00;99.90
4828;DHT22;2428;48.732;9.148;2022-07-25T05:58:45;22.10;99.90
4828;DHT22;2428;48.732;9.148;2022-07-25T06:01:12;22.10;99.90
4828;DHT22;2428;48.732;9.148;2022-07-25T06:03:38;22.20;99.90
4828;DHT22;2428;48.732;9.148;2022-07-25T06:06:04;22.20;99.90
4828;DHT22;2428;48.732;9.148;2022-07-25T06:08:30;22.30;99.90
4828;DHT22;2428;48.732;9.148;2022-07-25T06:10:57;22.30;99.90
4828;DHT22;2428;48.732;9.148;2022-07-25T06:13:23;22.40;99.90
4828;DHT22;2428;48.732;9.148;2022-07-25T06:15:48;22.50;99.90
4828;DHT22;2428;48.732;9.148;2022-07-25T06:18:14;22.50;99.90
4828;DHT22;2428;48.732;9.148;2022-07-25T06:20:40;22.60;99.90
4828;DHT22;2428;48.732;9.148;2022-07-25T06:23:05;22.70;99.90
4828;DHT22;2428;48.732;9.148;2022-07-25T06:25:31;22.70;99.90
4828;DHT22;2428;48.732;9.148;2022-07-25T06:27:57;22.80;99.90
4828;DHT22;2428;48.732;9.148;2022-07-25T06:30:22;22.90;99.90
4828;DHT22;2428;48.732;9.148;2022-07-25T06:32:48;22.90;99.90
4828;DHT22;2428;48.732;9.148;2022-07-25T06:35:15;23.00;99.90
4828;DHT22;2428;48.732;9.148;2022-07-25T06:37:41;23.10;99.90
4828;DHT22;2428;48.732;9.148;2022-07-25T06:40:07;23.20;99.90
4828;DHT22;2428;48.732;9.148;2022-07-25T06:42:37;23.20;99.90
4828;DHT22;2428;48.732;9.148;2022-07-25T06:45:04;23.30;99.90
4828;DHT22;2428;48.732;9.148;2022-07-25T06:47:30;23.40;99.90
4828;DHT22;2428;48.732;9.148;2022-07-25T06:49:56;23.60;99.90
4828;DHT22;2428;48.732;9.148;2022-07-25T06:52:22;23.60;99.90
4828;DHT22;2428;48.732;9.148;2022-07-25T06:54:47;23.70;99.90
4828;DHT22;2428;48.732;9.148;2022-07-25T06:57:13;23.70;99.90
4828;DHT22;2428;48.732;9.148;2022-07-25T06:59:38;23.80;99.90
4828;DHT22;2428;48.732;9.148;2022-07-25T07:02:04;23.80;99.90
4828;DHT22;2428;48.732;9.148;2022-07-25T07:04:30;23.90;99.90
4828;DHT22;2428;48.732;9.148;2022-07-25T07:06:55;23.90;99.90
4828;DHT22;2428;48.732;9.148;2022-07-25T07:09:21;24.00;99.90
4828;DHT22;2428;48.732;9.148;2022-07-25T07:11:47;24.00;99.90
4828;DHT22;2428;48.732;9.148;2022-07-25T07:14:12;24.10;99.90
4828;DHT22;2428;48.732;9.148;2022-07-25T07:16:38;24.20;99.90
4828;DHT22;2428;48.732;9.148;2022-07-25T07:19:05;24.20;99.90
4828;DHT22;2428;48.732;9.148;2022-07-25T07:21:31;24.30;99.90
4828;DHT22;2428;48.732;9.148;2022-07-25T07:23:56;24.40;99.90
4828;DHT22;2428;48.732;9.148;2022-07-25T07:26:22;24.50;99.90
4828;DHT22;2428;48.732;9.148;2022-07-25T07:28:48;24.60;99.90
4828;DHT22;2428;48.732;9.148;2022-07-25T07:31:16;24.60;99.90
4828;DHT22;2428;48.732;9.148;2022-07-25T07:33:42;24.60;99.90
4828;DHT22;2428;48.732;9.148;2022-07-25T07:36:07;24.70;99.90
4828;DHT22;2428;48.732;9.148;2022-07-25T07:38:33;24.80;99.90
4828;DHT22;2428;48.732;9.148;2022-07-25T07:40:59;24.90;99.90
4828;DHT22;2428;48.732;9.148;2022-07-25T07:43:24;25.00;99.90
4828;DHT22;2428;48.732;9.148;2022-07-25T07:45:50;25.10;99.90
4828;DHT22;2428;48.732;9.148;2022-07-25T07:48:16;25.20;99.90
4828;DHT22;2428;48.732;9.148;2022-07-25T07:50:41;25.30;99.90
4828;DHT22;2428;48.732;9.148;2022-07-25T07:53:07;25.40;99.90
4828;DHT22;2428;48.732;9.148;2022-07-25T07:55:33;25.40;99.90
4828;DHT22;2428;48.732;9.148;2022-07-25T07:58:15;25.50;99.90
4828;DHT22;2428;48.732;9.148;2022-07-25T08:00:47;25.60;99.90
4828;DHT22;2428;48.732;9.148;2022-07-25T08:03:16;25.60;99.90
4828;DHT22;2428;48.732;9.148;2022-07-25T08:05:43;25.60;99.90
4828;DHT22;2428;48.732;9.148;2022-07-25T08:08:13;25.70;99.90
4828;DHT22;2428;48.732;9.148;2022-07-25T08:10:41;25.80;99.90
4828;DHT22;2428;48.732;9.148;2022-07-25T08:13:18;25.90;99.90
4828;DHT22;2428;48.732;9.148;2022-07-25T08:15:46;26.00;99.90
4828;DHT22;2428;48.732;9.148;2022-07-25T08:18:13;26.00;99.90
4828;DHT22;2428;48.732;9.148;2022-07-25T08:20:39;26.10;99.90
4828;DHT22;2428;48.732;9.148;2022-07-25T08:23:05;26.20;99.90
4828;DHT22;2428;48.732;9.148;2022-07-25T08:25:31;26.20;99.90
4828;DHT22;2428;48.732;9.148;2022-07-25T08:27:58;26.20;99.90
4828;DHT22;2428;48.732;9.148;2022-07-25T08:30:24;26.40;99.90
4828;DHT22;2428;48.732;9.148;2022-07-25T08:32:55;26.60;99.90
4828;DHT22;2428;48.732;9.148;2022-07-25T08:35:23;26.60;99.90
4828;DHT22;2428;48.732;9.148;2022-07-25T08:37:51;26.70;99.90
4828;DHT22;2428;48.732;9.148;2022-07-25T08:40:18;26.80;99.90
4828;DHT22;2428;48.732;9.148;2022-07-25T08:42:44;27.00;99.90
4828;DHT22;2428;48.732;9.148;2022-07-25T08:45:11;27.10;99.90
4828;DHT22;2428;48.732;9.148;2022-07-25T08:47:39;27.20;99.90
4828;DHT22;2428;48.732;9.148;2022-07-25T08:50:07;27.20;99.90
4828;DHT22;2428;48.732;9.148;2022-07-25T08:52:33;27.30;99.90
4828;DHT22;2428;48.732;9.148;2022-07-25T08:55:09;27.40;99.90
4828;DHT22;2428;48.732;9.148;2022-07-25T08:57:36;27.40;99.90
4828;DHT22;2428;48.732;9.148;2022-07-25T09:00:06;27.50;99.90
4828;DHT22;2428;48.732;9.148;2022-07-25T09:02:32;27.50;99.90
4828;DHT22;2428;48.732;9.148;2022-07-25T09:04:58;27.50;99.90
4828;DHT22;2428;48.732;9.148;2022-07-25T09:10:10;27.50;99.90
4828;DHT22;2428;48.732;9.148;2022-07-25T09:12:37;27.60;99.90
4828;DHT22;2428;48.732;9.148;2022-07-25T09:15:03;27.70;99.90
4828;DHT22;2428;48.732;9.148;2022-07-25T09:17:29;27.80;99.90
4828;DHT22;2428;48.732;9.148;2022-07-25T09:19:55;27.80;99.90
4828;DHT22;2428;48.732;9.148;2022-07-25T09:22:21;27.90;99.90
4828;DHT22;2428;48.732;9.148;2022-07-25T09:24:48;27.90;99.90
4828;DHT22;2428;48.732;9.148;2022-07-25T09:27:14;28.00;99.90
4828;DHT22;2428;48.732;9.148;2022-07-25T09:29:40;28.00;99.90
4828;DHT22;2428;48.732;9.148;2022-07-25T09:32:33;28.00;99.90
4828;DHT22;2428;48.732;9.148;2022-07-25T09:34:58;28.10;99.90
4828;DHT22;2428;48.732;9.148;2022-07-25T09:37:25;28.20;99.90
4828;DHT22;2428;48.732;9.148;2022-07-25T09:39:51;28.30;99.90
4828;DHT22;2428;48.732;9.148;2022-07-25T09:42:31;28.30;99.90
4828;DHT22;2428;48.732;9.148;2022-07-25T09:45:15;28.40;99.90
4828;DHT22;2428;48.732;9.148;2022-07-25T09:50:18;28.60;99.90
4828;DHT22;2428;48.732;9.148;2022-07-25T09:52:44;28.60;99.90
4828;DHT22;2428;48.732;9.148;2022-07-25T09:55:10;28.70;99.90
4828;DHT22;2428;48.732;9.148;2022-07-25T09:57:39;28.70;99.90
4828;DHT22;2428;48.732;9.148;2022-07-25T10:00:06;28.80;99.90
4828;DHT22;2428;48.732;9.148;2022-07-25T10:07:59;29.50;99.90
4828;DHT22;2428;48.732;9.148;2022-07-25T10:10:35;29.70;99.90
4828;DHT22;2428;48.732;9.148;2022-07-25T10:13:12;30.10;99.90
4828;DHT22;2428;48.732;9.148;2022-07-25T10:18:12;30.90;99.90
4828;DHT22;2428;48.732;9.148;2022-07-25T10:20:38;31.30;99.90
4828;DHT22;2428;48.732;9.148;2022-07-25T10:23:14;31.50;99.00
4828;DHT22;2428;48.732;9.148;2022-07-25T10:25:40;31.80;99.90
4828;DHT22;2428;48.732;9.148;2022-07-25T10:28:07;32.00;99.60
4828;DHT22;2428;48.732;9.148;2022-07-25T10:30:36;32.60;96.30
4828;DHT22;2428;48.732;9.148;2022-07-25T10:33:09;33.20;95.30
4828;DHT22;2428;48.732;9.148;2022-07-25T10:35:35;34.30;92.80
4828;DHT22;2428;48.732;9.148;2022-07-25T10:38:03;35.40;86.10
4828;DHT22;2428;48.732;9.148;2022-07-25T10:40:33;36.40;81.10
4828;DHT22;2428;48.732;9.148;2022-07-25T10:45:42;37.10;70.10
4828;DHT22;2428;48.732;9.148;2022-07-25T10:48:10;38.10;69.30
4828;DHT22;2428;48.732;9.148;2022-07-25T10:50:46;38.80;65.10
4828;DHT22;2428;48.732;9.148;2022-07-25T10:53:12;39.60;60.00
4828;DHT22;2428;48.732;9.148;2022-07-25T10:55:38;40.20;59.20
4828;DHT22;2428;48.732;9.148;2022-07-25T10:58:04;40.00;55.80
4828;DHT22;2428;48.732;9.148;2022-07-25T11:00:33;40.50;55.90
4828;DHT22;2428;48.732;9.148;2022-07-25T11:02:59;40.90;54.50
4828;DHT22;2428;48.732;9.148;2022-07-25T11:05:25;41.10;53.90
4828;DHT22;2428;48.732;9.148;2022-07-25T11:07:52;41.60;53.00
4828;DHT22;2428;48.732;9.148;2022-07-25T11:10:26;42.20;53.70
4828;DHT22;2428;48.732;9.148;2022-07-25T11:12:52;42.40;49.90
4828;DHT22;2428;48.732;9.148;2022-07-25T11:15:21;41.90;50.30
4828;DHT22;2428;48.732;9.148;2022-07-25T11:17:52;41.80;50.50
4828;DHT22;2428;48.732;9.148;2022-07-25T11:20:18;41.80;48.00
4828;DHT22;2428;48.732;9.148;2022-07-25T11:22:51;41.60;50.10
4828;DHT22;2428;48.732;9.148;2022-07-25T11:25:20;41.60;48.60
4828;DHT22;2428;48.732;9.148;2022-07-25T11:27:54;41.50;49.90
4828;DHT22;2428;48.732;9.148;2022-07-25T11:30:20;41.30;49.40
4828;DHT22;2428;48.732;9.148;2022-07-25T11:32:49;41.10;49.80
4828;DHT22;2428;48.732;9.148;2022-07-25T11:35:16;41.80;49.60
4828;DHT22;2428;48.732;9.148;2022-07-25T11:37:44;40.60;47.50
4828;DHT22;2428;48.732;9.148;2022-07-25T11:40:14;40.20;47.70
4828;DHT22;2428;48.732;9.148;2022-07-25T11:42:47;40.20;47.90
4828;DHT22;2428;48.732;9.148;2022-07-25T11:48:07;39.90;48.20
4828;DHT22;2428;48.732;9.148;2022-07-25T11:50:35;39.50;47.30
4828;DHT22;2428;48.732;9.148;2022-07-25T11:53:04;39.70;49.00
4828;DHT22;2428;48.732;9.148;2022-07-25T11:55:32;40.10;48.60
4828;DHT22;2428;48.732;9.148;2022-07-25T11:58:02;40.20;51.40
4828;DHT22;2428;48.732;9.148;2022-07-25T12:00:29;39.90;47.70
4828;DHT22;2428;48.732;9.148;2022-07-25T12:03:06;39.80;50.40
4828;DHT22;2428;48.732;9.148;2022-07-25T12:05:32;39.80;50.00
4828;DHT22;2428;48.732;9.148;2022-07-25T12:08:10;39.80;49.60
4828;DHT22;2428;48.732;9.148;2022-07-25T12:10:39;38.50;48.20
4828;DHT22;2428;48.732;9.148;2022-07-25T12:13:05;37.50;50.00
4828;DHT22;2428;48.732;9.148;2022-07-25T12:15:37;37.00;51.20
4828;DHT22;2428;48.732;9.148;2022-07-25T12:18:03;36.90;53.90
4828;DHT22;2428;48.732;9.148;2022-07-25T12:20:33;36.90;54.50
4828;DHT22;2428;48.732;9.148;2022-07-25T12:23:02;36.30;50.70
4828;DHT22;2428;48.732;9.148;2022-07-25T12:25:29;35.90;53.00
4828;DHT22;2428;48.732;9.148;2022-07-25T12:27:55;35.60;52.40
4828;DHT22;2428;48.732;9.148;2022-07-25T12:30:23;35.50;54.60
4828;DHT22;2428;48.732;9.148;2022-07-25T12:32:49;35.60;54.00
4828;DHT22;2428;48.732;9.148;2022-07-25T12:35:15;36.20;53.60
4828;DHT22;2428;48.732;9.148;2022-07-25T12:37:41;36.60;53.50
4828;DHT22;2428;48.732;9.148;2022-07-25T12:40:08;36.90;53.20
4828;DHT22;2428;48.732;9.148;2022-07-25T12:42:34;36.60;52.30
4828;DHT22;2428;48.732;9.148;2022-07-25T12:44:59;36.20;52.40
4828;DHT22;2428;48.732;9.148;2022-07-25T12:47:26;35.80;53.40
4828;DHT22;2428;48.732;9.148;2022-07-25T12:49:53;35.50;53.30
4828;DHT22;2428;48.732;9.148;2022-07-25T12:52:18;34.90;52.80
4828;DHT22;2428;48.732;9.148;2022-07-25T12:54:44;34.50;52.70
4828;DHT22;2428;48.732;9.148;2022-07-25T12:57:10;34.30;53.30
4828;DHT22;2428;48.732;9.148;2022-07-25T12:59:36;34.10;52.80
4828;DHT22;2428;48.732;9.148;2022-07-25T13:02:03;34.10;54.70
4828;DHT22;2428;48.732;9.148;2022-07-25T13:04:28;34.00;56.90
4828;DHT22;2428;48.732;9.148;2022-07-25T13:06:55;33.90;59.50
4828;DHT22;2428;48.732;9.148;2022-07-25T13:09:21;33.80;61.10
4828;DHT22;2428;48.732;9.148;2022-07-25T13:11:47;33.90;61.00
4828;DHT22;2428;48.732;9.148;2022-07-25T13:14:13;34.00;59.00
4828;DHT22;2428;48.732;9.148;2022-07-25T13:16:44;34.00;58.60
4828;DHT22;2428;48.732;9.148;2022-07-25T13:19:11;33.90;59.30
4828;DHT22;2428;48.732;9.148;2022-07-25T13:21:37;33.90;58.70
4828;DHT22;2428;48.732;9.148;2022-07-25T13:24:03;34.00;58.00
4828;DHT22;2428;48.732;9.148;2022-07-25T13:26:30;33.90;56.00
4828;DHT22;2428;48.732;9.148;2022-07-25T13:28:56;33.70;57.00
4828;DHT22;2428;48.732;9.148;2022-07-25T13:31:22;33.60;58.00
4828;DHT22;2428;48.732;9.148;2022-07-25T13:33:48;33.50;57.60
4828;DHT22;2428;48.732;9.148;2022-07-25T13:36:15;33.40;56.90
4828;DHT22;2428;48.732;9.148;2022-07-25T13:38:42;33.40;59.10
4828;DHT22;2428;48.732;9.148;2022-07-25T13:41:08;33.40;57.90
4828;DHT22;2428;48.732;9.148;2022-07-25T13:43:34;33.60;59.70
4828;DHT22;2428;48.732;9.148;2022-07-25T13:46:01;33.70;59.20
4828;DHT22;2428;48.732;9.148;2022-07-25T13:48:27;33.80;58.40
4828;DHT22;2428;48.732;9.148;2022-07-25T13:50:54;33.60;58.30
4828;DHT22;2428;48.732;9.148;2022-07-25T13:53:19;33.40;57.70
4828;DHT22;2428;48.732;9.148;2022-07-25T13:55:46;33.30;59.00
4828;DHT22;2428;48.732;9.148;2022-07-25T13:58:11;33.20;58.90
4828;DHT22;2428;48.732;9.148;2022-07-25T14:00:37;33.10;59.10
4828;DHT22;2428;48.732;9.148;2022-07-25T14:03:03;33.10;59.70
4828;DHT22;2428;48.732;9.148;2022-07-25T14:05:28;32.90;58.40
4828;DHT22;2428;48.732;9.148;2022-07-25T14:07:54;32.90;59.70
4828;DHT22;2428;48.732;9.148;2022-07-25T14:10:19;32.70;58.50
4828;DHT22;2428;48.732;9.148;2022-07-25T14:12:45;32.60;59.90
4828;DHT22;2428;48.732;9.148;2022-07-25T14:15:10;32.50;59.90
4828;DHT22;2428;48.732;9.148;2022-07-25T14:17:36;32.50;61.90
4828;DHT22;2428;48.732;9.148;2022-07-25T14:20:04;32.40;61.50
4828;DHT22;2428;48.732;9.148;2022-07-25T14:22:30;32.20;59.70
4828;DHT22;2428;48.732;9.148;2022-07-25T14:24:55;32.10;61.10
4828;DHT22;2428;48.732;9.148;2022-07-25T14:27:21;32.00;61.80
4828;DHT22;2428;48.732;9.148;2022-07-25T14:29:47;31.90;62.30
4828;DHT22;2428;48.732;9.148;2022-07-25T14:32:12;31.90;63.00
4828;DHT22;2428;48.732;9.148;2022-07-25T14:34:38;31.80;63.10
4828;DHT22;2428;48.732;9.148;2022-07-25T14:37:05;31.90;65.60
4828;DHT22;2428;48.732;9.148;2022-07-25T14:39:31;31.90;64.40
4828;DHT22;2428;48.732;9.148;2022-07-25T14:41:57;32.00;65.50
4828;DHT22;2428;48.732;9.148;2022-07-25T14:44:27;32.10;63.70
4828;DHT22;2428;48.732;9.148;2022-07-25T14:46:53;32.20;66.90
4828;DHT22;2428;48.732;9.148;2022-07-25T14:49:21;32.50;65.20
4828;DHT22;2428;48.732;9.148;2022-07-25T14:51:47;32.80;64.80
4828;DHT22;2428;48.732;9.148;2022-07-25T14:54:12;33.00;64.30
4828;DHT22;2428;48.732;9.148;2022-07-25T14:56:39;33.20;63.90
4828;DHT22;2428;48.732;9.148;2022-07-25T14:59:05;33.10;62.00
4828;DHT22;2428;48.732;9.148;2022-07-25T15:01:31;32.90;62.80
4828;DHT22;2428;48.732;9.148;2022-07-25T15:03:57;32.90;64.20
4828;DHT22;2428;48.732;9.148;2022-07-25T15:06:23;32.80;62.40
4828;DHT22;2428;48.732;9.148;2022-07-25T15:08:49;32.50;62.50
4828;DHT22;2428;48.732;9.148;2022-07-25T15:11:21;32.20;63.00
4828;DHT22;2428;48.732;9.148;2022-07-25T15:13:47;32.10;64.30
4828;DHT22;2428;48.732;9.148;2022-07-25T15:16:17;32.00;64.70
4828;DHT22;2428;48.732;9.148;2022-07-25T15:18:43;31.80;65.00
4828;DHT22;2428;48.732;9.148;2022-07-25T15:21:09;31.70;65.80
4828;DHT22;2428;48.732;9.148;2022-07-25T15:23:35;31.70;66.00
4828;DHT22;2428;48.732;9.148;2022-07-25T15:26:02;31.70;66.10
4828;DHT22;2428;48.732;9.148;2022-07-25T15:28:28;32.10;66.20
4828;DHT22;2428;48.732;9.148;2022-07-25T15:30:54;32.40;67.40
4828;DHT22;2428;48.732;9.148;2022-07-25T15:33:20;32.70;67.20
4828;DHT22;2428;48.732;9.148;2022-07-25T15:35:46;32.90;67.50
4828;DHT22;2428;48.732;9.148;2022-07-25T15:38:14;32.90;65.30
4828;DHT22;2428;48.732;9.148;2022-07-25T15:40:41;32.80;67.20
4828;DHT22;2428;48.732;9.148;2022-07-25T15:43:07;32.80;68.10
4828;DHT22;2428;48.732;9.148;2022-07-25T15:45:37;32.60;70.40
4828;DHT22;2428;48.732;9.148;2022-07-25T15:48:05;32.50;71.00
4828;DHT22;2428;48.732;9.148;2022-07-25T15:50:32;32.30;72.90
4828;DHT22;2428;48.732;9.148;2022-07-25T15:52:58;32.10;73.60
4828;DHT22;2428;48.732;9.148;2022-07-25T15:55:24;31.60;72.60
4828;DHT22;2428;48.732;9.148;2022-07-25T15:57:51;31.10;74.80
4828;DHT22;2428;48.732;9.148;2022-07-25T16:00:17;30.90;76.00
4828;DHT22;2428;48.732;9.148;2022-07-25T16:02:42;30.60;76.80
4828;DHT22;2428;48.732;9.148;2022-07-25T16:05:09;30.40;77.40
4828;DHT22;2428;48.732;9.148;2022-07-25T16:07:35;30.30;77.50
4828;DHT22;2428;48.732;9.148;2022-07-25T16:10:01;30.20;78.60
4828;DHT22;2428;48.732;9.148;2022-07-25T16:12:26;30.10;78.70
4828;DHT22;2428;48.732;9.148;2022-07-25T16:14:52;30.10;80.60
4828;DHT22;2428;48.732;9.148;2022-07-25T16:17:18;30.00;80.70